Time;durP1;ratioP1;P1;durP2;ratioP2;P2;SDS_P1;SDS_P2;PMS_P1;PMS_P2;Temp;Humidity;BMP_temperature;BMP_pressure;BME280_temperature;BME280_humidity;BME280_pressure;Samples;Min_cycle;Max_cycle;Signal;HPM_P1;HPM_P2
2022/04/23 00:01:21;;;;;;;12.70;7.72;;;;;;;;;;5066347;28;20124;-69
2022/04/23 00:03:47;;;;;;;10.45;8.20;;;;;;;;;;5065918;28;20135;-69
2022/04/23 00:06:14;;;;;;;12.18;8.50;;;;;;;;;;5065003;28;20056;-69
2022/04/23 00:08:40;;;;;;;11.52;8.35;;;;;;;;;;5067528;28;20126;-69
2022/04/23 00:11:06;;;;;;;11.20;8.40;;;;;;;;;;5064354;28;20075;-69
2022/04/23 00:13:32;;;;;;;11.50;8.98;;;;;;;;;;5066400;28;20048;-69
2022/04/23 00:15:58;;;;;;;12.50;9.18;;;;;;;;;;5066759;28;20461;-69
2022/04/23 00:18:24;;;;;;;14.43;9.38;;;;;;;;;;5065447;28;20036;-69
2022/04/23 00:20:50;;;;;;;13.23;9.75;;;;;;;;;;5066009;28;20469;-69
2022/04/23 00:23:16;;;;;;;11.55;9.25;;;;;;;;;;5064039;28;20138;-69
2022/04/23 00:25:45;;;;;;;12.35;10.32;;;;;;;;;;5065841;28;20121;-69
2022/04/23 00:28:11;;;;;;;18.00;10.50;;;;;;;;;;5066374;28;21410;-69
2022/04/23 00:30:38;;;;;;;12.93;10.65;;;;;;;;;;5066253;28;20119;-69
2022/04/23 00:33:04;;;;;;;13.38;10.80;;;;;;;;;;5079531;28;20078;-68
2022/04/23 00:35:31;;;;;;;15.65;11.20;;;;;;;;;;5063472;28;20040;-69
2022/04/23 00:37:57;;;;;;;19.63;11.70;;;;;;;;;;5064863;28;20110;-69
2022/04/23 00:40:24;;;;;;;14.40;11.00;;;;;;;;;;5065053;28;20049;-69
2022/04/23 00:42:52;;;;;;;17.60;11.88;;;;;;;;;;5063839;28;20044;-69
2022/04/23 00:45:22;;;;;;;15.60;10.63;;;;;;;;;;5064168;28;20114;-69
2022/04/23 00:47:48;;;;;;;13.38;11.23;;;;;;;;;;5066029;28;20041;-69
2022/04/23 00:50:15;;;;;;;15.68;11.82;;;;;;;;;;5065817;28;20389;-68
2022/04/23 00:52:41;;;;;;;15.73;11.25;;;;;;;;;;5066476;28;20492;-69
2022/04/23 00:55:08;;;;;;;16.35;11.70;;;;;;;;;;5065978;28;20516;-69
2022/04/23 00:57:34;;;;;;;19.67;12.82;;;;;;;;;;5065143;28;20033;-69
2022/04/23 01:00:09;;;;;;;18.13;12.18;;;;;;;;;;5065830;28;20144;-69
2022/04/23 01:02:39;;;;;;;14.63;11.40;;;;;;;;;;5063876;28;20196;-69
2022/04/23 01:05:09;;;;;;;17.45;12.77;;;;;;;;;;5064264;28;20049;-69
2022/04/23 01:07:41;;;;;;;15.85;12.07;;;;;;;;;;5062373;28;20519;-68
2022/04/23 01:10:08;;;;;;;15.60;12.13;;;;;;;;;;5063284;28;20113;-68
2022/04/23 01:12:35;;;;;;;15.25;11.95;;;;;;;;;;5064184;28;20044;-69
2022/04/23 01:15:08;;;;;;;18.50;12.38;;;;;;;;;;5063595;28;20040;-69
2022/04/23 01:17:34;;;;;;;16.42;12.52;;;;;;;;;;5063401;28;20032;-69
2022/04/23 01:20:07;;;;;;;15.30;12.55;;;;;;;;;;5064103;28;20086;-68
2022/04/23 01:22:34;;;;;;;17.60;12.80;;;;;;;;;;5063874;28;20037;-69
2022/04/23 01:25:02;;;;;;;15.60;12.40;;;;;;;;;;5064581;28;20131;-68
2022/04/23 01:27:29;;;;;;;17.15;13.70;;;;;;;;;;5062514;28;20048;-68
2022/04/23 01:29:58;;;;;;;16.38;12.82;;;;;;;;;;5049025;28;20071;-68
2022/04/23 01:32:25;;;;;;;17.45;13.10;;;;;;;;;;5064025;28;20056;-68
2022/04/23 01:34:51;;;;;;;18.45;13.45;;;;;;;;;;5065631;28;20041;-68
2022/04/23 01:37:17;;;;;;;16.83;13.88;;;;;;;;;;5064023;28;20056;-68
2022/04/23 01:39:49;;;;;;;16.98;13.88;;;;;;;;;;5062770;28;20045;-68
2022/04/23 01:42:17;;;;;;;18.08;13.75;;;;;;;;;;5062949;28;20154;-68
2022/04/23 01:44:51;;;;;;;19.17;14.13;;;;;;;;;;5048305;28;20052;-69
2022/04/23 01:47:17;;;;;;;15.85;13.57;;;;;;;;;;5063691;28;20086;-68
2022/04/23 01:49:44;;;;;;;16.05;13.63;;;;;;;;;;5064787;28;20517;-68
2022/04/23 01:52:10;;;;;;;18.38;13.68;;;;;;;;;;5063612;28;20032;-68
2022/04/23 01:54:36;;;;;;;16.38;13.35;;;;;;;;;;5064428;28;20041;-68
2022/04/23 01:57:03;;;;;;;15.88;13.23;;;;;;;;;;5063884;28;20043;-68
2022/04/23 01:59:30;;;;;;;16.55;13.52;;;;;;;;;;5063554;28;20435;-68
2022/04/23 02:01:56;;;;;;;17.85;13.73;;;;;;;;;;5062162;28;20052;-68
2022/04/23 02:04:22;;;;;;;15.73;13.70;;;;;;;;;;5062701;28;20029;-68
2022/04/23 02:06:48;;;;;;;19.55;13.63;;;;;;;;;;5062066;28;20040;-68
2022/04/23 02:09:14;;;;;;;16.67;13.27;;;;;;;;;;5062765;28;20037;-68
2022/04/23 02:11:40;;;;;;;17.63;13.20;;;;;;;;;;5062988;28;20040;-68
2022/04/23 02:14:06;;;;;;;16.15;13.32;;;;;;;;;;5063587;28;20520;-68
2022/04/23 02:16:33;;;;;;;16.33;14.05;;;;;;;;;;5062724;28;20086;-68
2022/04/23 02:18:59;;;;;;;17.23;12.77;;;;;;;;;;5063439;28;20048;-68
2022/04/23 02:21:25;;;;;;;17.00;13.45;;;;;;;;;;5063934;28;20488;-68
2022/04/23 02:23:53;;;;;;;15.82;12.85;;;;;;;;;;5062627;28;20411;-68
2022/04/23 02:26:20;;;;;;;18.80;13.55;;;;;;;;;;5064380;28;20059;-68
2022/04/23 02:28:49;;;;;;;15.65;12.90;;;;;;;;;;5062659;28;20049;-68
2022/04/23 02:31:15;;;;;;;15.30;12.35;;;;;;;;;;5065226;28;20544;-68
2022/04/23 02:33:42;;;;;;;16.90;13.52;;;;;;;;;;5047280;28;20385;-68
2022/04/23 02:36:08;;;;;;;16.98;13.27;;;;;;;;;;5065289;28;20072;-68
2022/04/23 02:38:39;;;;;;;15.23;12.77;;;;;;;;;;5064049;28;20083;-68
2022/04/23 02:41:06;;;;;;;15.25;12.93;;;;;;;;;;5062501;28;20123;-68
2022/04/23 02:43:35;;;;;;;14.88;12.98;;;;;;;;;;5045647;28;20130;-68
2022/04/23 02:46:01;;;;;;;14.95;12.88;;;;;;;;;;5068249;28;20044;-68
2022/04/23 02:48:28;;;;;;;16.15;12.40;;;;;;;;;;5066338;28;20485;-68
2022/04/23 02:50:55;;;;;;;15.80;13.30;;;;;;;;;;5068504;28;22022;-68
2022/04/23 02:53:21;;;;;;;18.80;13.68;;;;;;;;;;5067425;28;20488;-68
2022/04/23 02:55:47;;;;;;;16.08;13.07;;;;;;;;;;5067175;28;20093;-68
2022/04/23 02:58:13;;;;;;;16.17;13.13;;;;;;;;;;5067850;28;20032;-68
2022/04/23 03:00:43;;;;;;;16.40;13.07;;;;;;;;;;5065829;28;20155;-68
2022/04/23 03:03:09;;;;;;;15.32;12.70;;;;;;;;;;5067457;28;20044;-68
2022/04/23 03:05:35;;;;;;;14.52;12.35;;;;;;;;;;5067172;28;20041;-68
2022/04/23 03:08:02;;;;;;;15.57;12.70;;;;;;;;;;5068671;28;20045;-68
2022/04/23 03:10:28;;;;;;;14.35;12.43;;;;;;;;;;5067212;28;20036;-68
2022/04/23 03:12:57;;;;;;;15.95;13.05;;;;;;;;;;5064695;28;20041;-68
2022/04/23 03:15:25;;;;;;;15.85;12.98;;;;;;;;;;5067119;28;20166;-68
2022/04/23 03:18:02;;;;;;;15.52;12.52;;;;;;;;;;5068072;28;20537;-68
2022/04/23 03:20:28;;;;;;;14.82;11.65;;;;;;;;;;5067343;28;20041;-68
2022/04/23 03:22:54;;;;;;;13.68;11.10;;;;;;;;;;5050710;28;20517;-68
2022/04/23 03:25:20;;;;;;;14.48;12.43;;;;;;;;;;5065594;28;20457;-68
2022/04/23 03:27:46;;;;;;;15.57;12.38;;;;;;;;;;5067426;28;20055;-68
2022/04/23 03:30:12;;;;;;;14.68;11.80;;;;;;;;;;5065524;28;20063;-68
2022/04/23 03:32:38;;;;;;;15.15;11.57;;;;;;;;;;5066176;28;20078;-68
2022/04/23 03:35:05;;;;;;;15.45;11.30;;;;;;;;;;5064224;28;20040;-68
2022/04/23 03:37:33;;;;;;;12.90;10.80;;;;;;;;;;5064764;28;20056;-67
2022/04/23 03:39:59;;;;;;;14.07;11.00;;;;;;;;;;5066459;28;20032;-67
2022/04/23 03:42:25;;;;;;;14.75;11.00;;;;;;;;;;5065084;28;21808;-68
2022/04/23 03:44:51;;;;;;;15.50;11.98;;;;;;;;;;5065358;28;20056;-68
2022/04/23 03:47:17;;;;;;;17.00;11.00;;;;;;;;;;5064217;28;20049;-68
2022/04/23 03:49:43;;;;;;;16.17;10.98;;;;;;;;;;5066032;28;20083;-68
2022/04/23 03:52:10;;;;;;;13.70;10.52;;;;;;;;;;5066794;28;20119;-68
2022/04/23 03:54:36;;;;;;;14.65;10.93;;;;;;;;;;5066147;28;20047;-68
2022/04/23 03:57:02;;;;;;;14.98;11.15;;;;;;;;;;5044761;28;20040;-68
2022/04/23 03:59:30;;;;;;;14.65;11.55;;;;;;;;;;5066385;28;20505;-68
2022/04/23 04:01:56;;;;;;;13.77;10.68;;;;;;;;;;5067389;28;20090;-68
2022/04/23 04:04:22;;;;;;;12.13;10.82;;;;;;;;;;5064589;28;22223;-68
2022/04/23 04:06:49;;;;;;;14.25;11.40;;;;;;;;;;5065812;28;20049;-68
2022/04/23 04:09:15;;;;;;;13.48;10.95;;;;;;;;;;5065905;28;20078;-68
2022/04/23 04:14:26;;;;;;;12.57;10.20;;;;;;;;;;5051839;28;20136;-68
2022/04/23 04:16:52;;;;;;;14.50;11.02;;;;;;;;;;5065335;28;20040;-68
2022/04/23 04:19:18;;;;;;;12.20;10.50;;;;;;;;;;5064793;28;20040;-68
2022/04/23 04:21:46;;;;;;;14.63;11.20;;;;;;;;;;5065400;28;20055;-68
2022/04/23 04:24:16;;;;;;;14.35;10.90;;;;;;;;;;5063881;28;20119;-68
2022/04/23 04:26:43;;;;;;;15.13;11.32;;;;;;;;;;5079942;28;20040;-68
2022/04/23 04:29:09;;;;;;;13.77;10.77;;;;;;;;;;5066856;28;20044;-68
2022/04/23 04:31:49;;;;;;;15.80;11.40;;;;;;;;;;5066383;28;20080;-68
2022/04/23 04:34:18;;;;;;;14.07;10.25;;;;;;;;;;5066001;28;20048;-68
2022/04/23 04:36:45;;;;;;;13.00;10.68;;;;;;;;;;5064221;28;20057;-68
2022/04/23 04:39:11;;;;;;;13.70;10.60;;;;;;;;;;5064919;28;20731;-68
2022/04/23 04:41:38;;;;;;;13.27;10.32;;;;;;;;;;5064711;28;20052;-68
2022/04/23 04:44:05;;;;;;;12.63;10.13;;;;;;;;;;5064058;28;20040;-68
2022/04/23 04:46:31;;;;;;;14.45;10.07;;;;;;;;;;5079838;28;20084;-68
2022/04/23 04:48:57;;;;;;;12.52;10.35;;;;;;;;;;5065856;28;20044;-68
2022/04/23 04:51:23;;;;;;;12.70;9.90;;;;;;;;;;5065961;28;20605;-69
2022/04/23 04:53:51;;;;;;;11.10;9.63;;;;;;;;;;5049790;28;20090;-68
2022/04/23 04:56:18;;;;;;;14.00;9.95;;;;;;;;;;5065151;28;20032;-68
2022/04/23 04:58:44;;;;;;;11.65;9.25;;;;;;;;;;5066591;28;20484;-68
2022/04/23 05:01:10;;;;;;;11.90;9.70;;;;;;;;;;5066809;28;20113;-68
2022/04/23 05:03:38;;;;;;;10.90;9.02;;;;;;;;;;5065783;28;20057;-68
2022/04/23 05:06:04;;;;;;;11.85;8.93;;;;;;;;;;5065426;28;20564;-67
2022/04/23 05:08:30;;;;;;;12.80;9.20;;;;;;;;;;5063602;28;20052;-68
2022/04/23 05:10:56;;;;;;;12.15;9.38;;;;;;;;;;5064539;28;20044;-68
2022/04/23 05:13:22;;;;;;;11.27;9.48;;;;;;;;;;5063229;28;20174;-68
2022/04/23 05:15:48;;;;;;;11.52;10.00;;;;;;;;;;5064251;28;20079;-68
2022/04/23 05:18:15;;;;;;;11.15;9.15;;;;;;;;;;5063096;28;20055;-68
2022/04/23 05:20:41;;;;;;;12.50;8.85;;;;;;;;;;5065099;28;20048;-68
2022/04/23 05:23:07;;;;;;;14.43;8.70;;;;;;;;;;5065337;28;20047;-68
2022/04/23 05:25:33;;;;;;;14.27;9.10;;;;;;;;;;5045071;28;20041;-68
2022/04/23 05:27:59;;;;;;;10.07;8.43;;;;;;;;;;5065760;28;20044;-68
2022/04/23 05:30:25;;;;;;;9.95;8.40;;;;;;;;;;5059139;28;20302;-68
2022/04/23 05:32:51;;;;;;;11.63;9.35;;;;;;;;;;5063617;28;20461;-68
2022/04/23 05:35:17;;;;;;;12.55;8.70;;;;;;;;;;5065476;28;20464;-68
2022/04/23 05:37:43;;;;;;;10.35;8.23;;;;;;;;;;5065176;28;20178;-68
2022/04/23 05:40:09;;;;;;;9.65;8.65;;;;;;;;;;5066437;28;20436;-68
2022/04/23 05:42:36;;;;;;;9.80;8.35;;;;;;;;;;5065650;28;20059;-68
2022/04/23 05:45:02;;;;;;;11.85;8.55;;;;;;;;;;5065666;28;20042;-68
2022/04/23 05:47:28;;;;;;;9.90;7.70;;;;;;;;;;5063846;28;20048;-68
2022/04/23 05:49:54;;;;;;;9.65;7.90;;;;;;;;;;5064716;28;20048;-68
2022/04/23 05:52:20;;;;;;;10.55;7.85;;;;;;;;;;5048936;28;20040;-68
2022/04/23 05:54:46;;;;;;;9.80;8.52;;;;;;;;;;5065393;28;20040;-68
2022/04/23 05:57:12;;;;;;;9.85;8.10;;;;;;;;;;5065112;28;20062;-68
2022/04/23 05:59:38;;;;;;;10.00;7.93;;;;;;;;;;5046492;28;20981;-68
2022/04/23 06:02:04;;;;;;;10.20;8.10;;;;;;;;;;5063290;28;20051;-68
2022/04/23 06:04:30;;;;;;;10.93;8.02;;;;;;;;;;5062277;28;20043;-68
2022/04/23 06:06:56;;;;;;;9.52;7.80;;;;;;;;;;5061850;28;20394;-66
2022/04/23 06:09:23;;;;;;;12.00;8.50;;;;;;;;;;5063166;28;20044;-68
2022/04/23 06:11:49;;;;;;;9.38;8.18;;;;;;;;;;5047877;28;20492;-68
2022/04/23 06:14:15;;;;;;;8.27;7.47;;;;;;;;;;5049019;28;20094;-68
2022/04/23 06:16:41;;;;;;;10.95;7.95;;;;;;;;;;5048402;28;20040;-68
2022/04/23 06:19:07;;;;;;;9.45;7.40;;;;;;;;;;5064761;28;20551;-68
2022/04/23 06:21:33;;;;;;;9.27;7.20;;;;;;;;;;5063836;28;20043;-68
2022/04/23 06:23:59;;;;;;;9.00;7.57;;;;;;;;;;5064516;28;20122;-68
2022/04/23 06:26:25;;;;;;;8.60;7.38;;;;;;;;;;5064865;28;20477;-68
2022/04/23 06:28:51;;;;;;;8.25;7.18;;;;;;;;;;5081096;28;20036;-68
2022/04/23 06:31:17;;;;;;;9.90;7.82;;;;;;;;;;5048148;28;20879;-68
2022/04/23 06:33:43;;;;;;;11.38;8.43;;;;;;;;;;5063892;28;20071;-68
2022/04/23 06:36:10;;;;;;;10.57;7.75;;;;;;;;;;5063665;28;20465;-68
2022/04/23 06:38:36;;;;;;;10.75;8.10;;;;;;;;;;5063747;28;20084;-67
2022/04/23 06:41:03;;;;;;;9.63;8.07;;;;;;;;;;5047068;28;20051;-68
2022/04/23 06:43:29;;;;;;;11.05;7.97;;;;;;;;;;5064879;28;20045;-68
2022/04/23 06:45:55;;;;;;;12.18;8.60;;;;;;;;;;5064807;28;21308;-68
2022/04/23 06:48:21;;;;;;;9.38;8.10;;;;;;;;;;5064400;28;20036;-68
2022/04/23 06:50:47;;;;;;;11.43;8.60;;;;;;;;;;5063906;28;20463;-68
2022/04/23 06:53:13;;;;;;;10.13;8.25;;;;;;;;;;5064445;28;20128;-68
2022/04/23 06:55:39;;;;;;;11.80;8.52;;;;;;;;;;5063654;28;20419;-68
2022/04/23 06:58:05;;;;;;;10.77;9.27;;;;;;;;;;5047637;28;20048;-67
2022/04/23 07:00:31;;;;;;;11.15;8.88;;;;;;;;;;5063932;28;20086;-67
2022/04/23 07:02:57;;;;;;;11.75;8.85;;;;;;;;;;5065207;28;20130;-67
2022/04/23 07:05:24;;;;;;;11.05;8.75;;;;;;;;;;5064571;28;20064;-67
2022/04/23 07:07:57;;;;;;;10.63;9.05;;;;;;;;;;5063998;28;20041;-68
2022/04/23 07:10:25;;;;;;;10.95;9.48;;;;;;;;;;5062348;28;20044;-67
2022/04/23 07:12:52;;;;;;;15.30;9.10;;;;;;;;;;5064286;28;20102;-68
2022/04/23 07:15:19;;;;;;;11.13;8.77;;;;;;;;;;5063234;28;20048;-68
2022/04/23 07:17:46;;;;;;;12.02;9.38;;;;;;;;;;5064300;28;20101;-68
2022/04/23 07:20:12;;;;;;;11.02;9.07;;;;;;;;;;5063774;28;20048;-68
2022/04/23 07:22:38;;;;;;;10.90;9.32;;;;;;;;;;5064195;28;20082;-68
2022/04/23 07:25:04;;;;;;;11.93;9.23;;;;;;;;;;5063756;28;20051;-68
2022/04/23 07:27:30;;;;;;;13.82;9.32;;;;;;;;;;5064585;28;20048;-68
2022/04/23 07:29:56;;;;;;;11.27;10.07;;;;;;;;;;5063108;28;20044;-68
2022/04/23 07:32:22;;;;;;;12.25;9.35;;;;;;;;;;5067687;28;20508;-68
2022/04/23 07:37:33;;;;;;;12.88;8.85;;;;;;;;;;5068704;28;20140;-69
2022/04/23 07:40:10;;;;;;;13.10;9.60;;;;;;;;;;5067769;28;20110;-68
2022/04/23 07:42:37;;;;;;;12.30;9.82;;;;;;;;;;5066871;28;20069;-68
2022/04/23 07:45:03;;;;;;;14.13;9.70;;;;;;;;;;5066495;28;20048;-68
2022/04/23 07:47:29;;;;;;;11.18;9.48;;;;;;;;;;5067401;28;21316;-68
2022/04/23 07:49:55;;;;;;;11.93;9.88;;;;;;;;;;5067357;28;20072;-68
2022/04/23 07:52:21;;;;;;;11.77;9.85;;;;;;;;;;5066421;28;20080;-68
2022/04/23 07:54:48;;;;;;;12.75;10.30;;;;;;;;;;5067688;28;20052;-68
2022/04/23 07:57:14;;;;;;;13.02;10.48;;;;;;;;;;5067252;28;20097;-68
2022/04/23 07:59:41;;;;;;;11.95;10.07;;;;;;;;;;5067170;28;20032;-68
2022/04/23 08:02:08;;;;;;;13.48;10.10;;;;;;;;;;5066352;28;20044;-68
2022/04/23 08:04:34;;;;;;;16.55;10.70;;;;;;;;;;5067632;28;20362;-69
2022/04/23 08:07:00;;;;;;;12.20;10.25;;;;;;;;;;5066940;28;20055;-68
2022/04/23 08:09:26;;;;;;;14.90;10.00;;;;;;;;;;5065609;28;20045;-68
2022/04/23 08:11:52;;;;;;;14.40;10.98;;;;;;;;;;5066805;28;20040;-68
2022/04/23 08:14:18;;;;;;;14.57;10.70;;;;;;;;;;5066730;28;20033;-68
2022/04/23 08:16:45;;;;;;;12.70;10.40;;;;;;;;;;5066374;28;20039;-68
2022/04/23 08:19:12;;;;;;;14.75;11.13;;;;;;;;;;5066310;28;20377;-68
2022/04/23 08:21:38;;;;;;;12.85;10.43;;;;;;;;;;5065247;28;20037;-69
2022/04/23 08:24:04;;;;;;;17.13;11.43;;;;;;;;;;5065689;28;20130;-68
2022/04/23 08:26:30;;;;;;;13.60;10.35;;;;;;;;;;5066559;28;20048;-69
2022/04/23 08:31:41;;;;;;;12.80;10.38;;;;;;;;;;5066337;28;20047;-68
2022/04/23 08:34:07;;;;;;;13.43;10.77;;;;;;;;;;5066488;28;20041;-69
2022/04/23 08:36:36;;;;;;;13.32;10.73;;;;;;;;;;5065741;28;20049;-68
2022/04/23 08:39:06;;;;;;;17.25;11.90;;;;;;;;;;5049545;28;20484;-68
2022/04/23 08:41:34;;;;;;;13.13;10.50;;;;;;;;;;5065571;28;20037;-68
2022/04/23 08:44:07;;;;;;;17.05;10.90;;;;;;;;;;5067380;28;20054;-68
2022/04/23 08:46:36;;;;;;;14.18;10.40;;;;;;;;;;5065871;28;20040;-69
2022/04/23 08:49:13;;;;;;;14.48;10.93;;;;;;;;;;5065598;28;20041;-69
2022/04/23 08:51:40;;;;;;;13.95;11.23;;;;;;;;;;5066356;28;20580;-69
2022/04/23 08:54:10;;;;;;;17.60;10.98;;;;;;;;;;5065031;28;20063;-69
2022/04/23 08:56:38;;;;;;;15.40;10.38;;;;;;;;;;5049884;28;20055;-69
2022/04/23 08:59:06;;;;;;;15.98;10.93;;;;;;;;;;5064706;28;20082;-69
2022/04/23 09:01:32;;;;;;;14.50;10.73;;;;;;;;;;5066092;28;20520;-68
2022/04/23 09:03:59;;;;;;;13.73;9.82;;;;;;;;;;5066175;28;20434;-69
2022/04/23 09:06:32;;;;;;;11.73;10.18;;;;;;;;;;5066090;28;20040;-69
2022/04/23 09:09:27;;;;;;;18.33;10.18;;;;;;;;;;5066025;28;20420;-69
2022/04/23 09:11:57;;;;;;;13.93;10.15;;;;;;;;;;5046028;28;20044;-68
2022/04/23 09:14:33;;;;;;;14.50;9.52;;;;;;;;;;5064406;28;20064;-68
2022/04/23 09:25:35;;;;;;;13.38;10.35;;;;;;;;;;5065834;28;20396;-68
2022/04/23 09:28:19;;;;;;;14.38;9.90;;;;;;;;;;5064719;28;20480;-68
2022/04/23 09:30:49;;;;;;;14.65;10.10;;;;;;;;;;5064843;28;20073;-68
2022/04/23 09:33:16;;;;;;;15.98;9.98;;;;;;;;;;5065219;28;20036;-69
2022/04/23 09:35:54;;;;;;;15.90;10.98;;;;;;;;;;5065419;28;20036;-69
2022/04/23 09:38:20;;;;;;;12.48;9.80;;;;;;;;;;5065642;28;20562;-69
2022/04/23 09:40:56;;;;;;;11.50;9.52;;;;;;;;;;5064071;28;20039;-69
2022/04/23 09:43:32;;;;;;;14.38;9.70;;;;;;;;;;5080141;28;20123;-68
2022/04/23 09:45:58;;;;;;;;;;;;;;;;;;5064261;28;20048;-69
2022/04/23 09:48:24;;;;;;;12.50;9.55;;;;;;;;;;5066034;28;19923;-68
2022/04/23 09:50:51;;;;;;;14.45;10.10;;;;;;;;;;5081089;28;20189;-68
2022/04/23 09:53:18;;;;;;;12.38;9.68;;;;;;;;;;5065036;28;20040;-69
2022/04/23 09:55:48;;;;;;;12.65;9.75;;;;;;;;;;5064380;28;20071;-69
2022/04/23 09:58:16;;;;;;;11.98;9.50;;;;;;;;;;5065388;28;20099;-69
2022/04/23 10:00:43;;;;;;;11.45;9.70;;;;;;;;;;5064089;28;20538;-69
2022/04/23 10:03:10;;;;;;;12.85;9.57;;;;;;;;;;5065014;28;20045;-69
2022/04/23 10:05:39;;;;;;;15.00;10.60;;;;;;;;;;5065686;28;20043;-69
2022/04/23 10:08:10;;;;;;;13.30;10.65;;;;;;;;;;5048736;28;20044;-69
2022/04/23 10:10:40;;;;;;;14.55;9.80;;;;;;;;;;5064920;28;20090;-69
2022/04/23 10:13:08;;;;;;;15.85;11.05;;;;;;;;;;5065567;28;20045;-69
2022/04/23 10:15:34;;;;;;;11.65;10.10;;;;;;;;;;5065068;28;20032;-69
2022/04/23 10:18:00;;;;;;;15.18;10.23;;;;;;;;;;5064574;28;20044;-69
2022/04/23 10:20:29;;;;;;;12.32;10.40;;;;;;;;;;5064983;28;20075;-69
2022/04/23 10:23:09;;;;;;;14.57;11.65;;;;;;;;;;5064229;28;20097;-69
2022/04/23 10:25:54;;;;;;;12.88;10.48;;;;;;;;;;5065178;28;20485;-68
2022/04/23 10:28:21;;;;;;;16.88;10.88;;;;;;;;;;5066104;28;20033;-68
2022/04/23 10:30:47;;;;;;;17.00;10.48;;;;;;;;;;5066189;28;20044;-69
2022/04/23 10:33:31;;;;;;;12.70;10.38;;;;;;;;;;5064948;28;20045;-69
2022/04/23 10:36:08;;;;;;;14.55;10.00;;;;;;;;;;5063682;28;20040;-69
2022/04/23 10:38:37;;;;;;;14.73;10.68;;;;;;;;;;5064682;28;20084;-69
2022/04/23 10:41:04;;;;;;;14.35;10.32;;;;;;;;;;5064304;28;20124;-69
2022/04/23 10:43:30;;;;;;;13.07;11.63;;;;;;;;;;5064061;28;20086;-69
2022/04/23 10:45:57;;;;;;;14.52;11.18;;;;;;;;;;5064413;28;20433;-69
2022/04/23 10:48:24;;;;;;;12.43;11.05;;;;;;;;;;5064899;28;20045;-69
2022/04/23 10:51:06;;;;;;;13.02;11.07;;;;;;;;;;5064439;28;20074;-69
2022/04/23 10:53:38;;;;;;;13.32;11.18;;;;;;;;;;5064024;28;20041;-68
2022/04/23 10:56:08;;;;;;;14.25;11.00;;;;;;;;;;5063631;28;20146;-69
2022/04/23 10:58:34;;;;;;;17.65;11.30;;;;;;;;;;5063776;28;20037;-69
2022/04/23 11:01:21;;;;;;;14.05;11.60;;;;;;;;;;5065192;28;20043;-69
2022/04/23 11:03:53;;;;;;;15.13;10.73;;;;;;;;;;5064223;28;20060;-69
2022/04/23 11:12:20;;;;;;;15.43;11.77;;;;;;;;;;5068125;28;20051;-69
2022/04/23 11:14:49;;;;;;;12.05;10.25;;;;;;;;;;5069076;28;20123;-69
2022/04/23 11:17:17;;;;;;;13.63;10.88;;;;;;;;;;5068156;28;20131;-69
2022/04/23 11:19:45;;;;;;;13.52;10.80;;;;;;;;;;5068268;28;20424;-69
2022/04/23 11:22:12;;;;;;;13.13;10.70;;;;;;;;;;5068679;28;20040;-69
2022/04/23 11:24:39;;;;;;;11.13;9.73;;;;;;;;;;5068121;28;20040;-69
2022/04/23 11:27:05;;;;;;;12.68;10.35;;;;;;;;;;5067250;28;20498;-69
2022/04/23 11:29:31;;;;;;;15.60;10.40;;;;;;;;;;5067681;28;20045;-68
2022/04/23 11:31:58;;;;;;;11.48;10.07;;;;;;;;;;5067604;28;20048;-69
2022/04/23 11:34:24;;;;;;;11.65;9.95;;;;;;;;;;5067790;28;20051;-69
2022/04/23 11:36:50;;;;;;;12.18;10.10;;;;;;;;;;5067904;28;20101;-69
2022/04/23 11:39:16;;;;;;;14.48;10.63;;;;;;;;;;5067302;28;20060;-68
2022/04/23 11:41:49;;;;;;;13.60;9.70;;;;;;;;;;5067548;28;20041;-69
2022/04/23 11:44:16;;;;;;;13.27;10.95;;;;;;;;;;5067156;28;20136;-69
2022/04/23 11:46:43;;;;;;;15.35;10.20;;;;;;;;;;5067563;28;20477;-69
2022/04/23 11:49:09;;;;;;;11.95;9.68;;;;;;;;;;5067507;28;20128;-69
2022/04/23 11:51:35;;;;;;;13.63;10.40;;;;;;;;;;5067402;28;20090;-69
2022/04/23 11:54:01;;;;;;;13.40;9.60;;;;;;;;;;5067200;28;20049;-69
2022/04/23 11:56:29;;;;;;;12.98;10.20;;;;;;;;;;5067246;28;20036;-69
2022/04/23 11:59:03;;;;;;;12.32;10.15;;;;;;;;;;5067526;28;20072;-67
2022/04/23 12:01:29;;;;;;;13.25;10.63;;;;;;;;;;5066314;28;20492;-68
2022/04/23 12:03:56;;;;;;;13.50;10.27;;;;;;;;;;5066910;28;20040;-68
2022/04/23 12:06:23;;;;;;;14.73;9.18;;;;;;;;;;5065880;28;20464;-68
2022/04/23 12:08:49;;;;;;;13.43;10.25;;;;;;;;;;5066088;28;20045;-68
2022/04/23 12:11:29;;;;;;;12.70;8.85;;;;;;;;;;5067223;28;20032;-68
2022/04/23 12:13:55;;;;;;;11.35;9.55;;;;;;;;;;5083552;28;20527;-68
2022/04/23 12:16:31;;;;;;;11.20;9.55;;;;;;;;;;5065611;28;20036;-68
2022/04/23 12:18:58;;;;;;;15.93;9.68;;;;;;;;;;5079138;28;20147;-68
2022/04/23 12:21:24;;;;;;;12.77;9.63;;;;;;;;;;5066986;28;20048;-69
2022/04/23 12:23:50;;;;;;;11.15;9.55;;;;;;;;;;5067251;28;20041;-69
2022/04/23 12:26:19;;;;;;;12.18;9.85;;;;;;;;;;5066813;28;20041;-69
2022/04/23 12:42:26;;;;;;;9.15;8.10;;;;;;;;;;5066118;28;20622;-69
2022/04/23 12:44:53;;;;;;;9.77;7.97;;;;;;;;;;5066600;28;20032;-69
2022/04/23 12:47:29;;;;;;;13.30;8.15;;;;;;;;;;5066577;28;20044;-69
2022/04/23 12:49:57;;;;;;;12.38;6.88;;;;;;;;;;5065234;28;20044;-69
2022/04/23 12:52:25;;;;;;;8.82;7.07;;;;;;;;;;5065863;28;20461;-69
2022/04/23 12:55:10;;;;;;;10.30;7.45;;;;;;;;;;5065863;28;20040;-68
2022/04/23 12:57:36;;;;;;;8.00;6.63;;;;;;;;;;5065675;28;20512;-69
2022/04/23 13:00:03;;;;;;;8.85;7.35;;;;;;;;;;5047981;28;20040;-69
2022/04/23 13:02:37;;;;;;;7.68;6.53;;;;;;;;;;5065924;28;20048;-69
2022/04/23 13:05:05;;;;;;;7.80;6.47;;;;;;;;;;5047081;28;20040;-69
2022/04/23 13:10:15;;;;;;;10.57;6.35;;;;;;;;;;5065363;28;20132;-68
2022/04/23 13:12:41;;;;;;;7.65;5.55;;;;;;;;;;5063866;28;20260;-68
2022/04/23 13:15:07;;;;;;;6.82;6.13;;;;;;;;;;5065701;28;20746;-69
2022/04/23 13:17:34;;;;;;;7.57;6.50;;;;;;;;;;5049763;28;20461;-69
2022/04/23 13:20:01;;;;;;;10.95;5.95;;;;;;;;;;5065506;28;20025;-69
2022/04/23 13:22:28;;;;;;;8.57;6.57;;;;;;;;;;5049134;28;20040;-69
2022/04/23 13:24:54;;;;;;;8.23;5.75;;;;;;;;;;5065037;28;20604;-69
2022/04/23 13:27:20;;;;;;;8.52;6.03;;;;;;;;;;5065885;28;20127;-69
2022/04/23 13:29:46;;;;;;;7.53;5.82;;;;;;;;;;5064936;28;20045;-69
2022/04/23 13:32:12;;;;;;;10.77;6.00;;;;;;;;;;5065888;28;20354;-69
2022/04/23 13:34:38;;;;;;;6.63;5.93;;;;;;;;;;5065327;28;20365;-68
2022/04/23 13:37:04;;;;;;;7.43;5.53;;;;;;;;;;5065216;28;20037;-69
2022/04/23 13:39:30;;;;;;;6.53;4.88;;;;;;;;;;5064380;28;20051;-69
2022/04/23 13:41:56;;;;;;;5.32;4.78;;;;;;;;;;5064516;28;20044;-69
2022/04/23 13:44:23;;;;;;;9.45;5.28;;;;;;;;;;5066374;28;20064;-69
2022/04/23 13:46:51;;;;;;;7.00;5.43;;;;;;;;;;5064755;28;20040;-69
2022/04/23 13:49:17;;;;;;;9.27;5.35;;;;;;;;;;5064055;28;20051;-69
2022/04/23 13:51:43;;;;;;;7.97;5.43;;;;;;;;;;5065475;28;20047;-69
2022/04/23 13:54:09;;;;;;;5.68;5.00;;;;;;;;;;5049054;28;20048;-69
2022/04/23 13:56:35;;;;;;;6.30;4.65;;;;;;;;;;5065328;28;20233;-68
2022/04/23 13:59:01;;;;;;;5.45;4.53;;;;;;;;;;5064337;28;20041;-68
2022/04/23 14:01:27;;;;;;;7.93;5.35;;;;;;;;;;5064899;28;20037;-69
2022/04/23 14:12:07;;;;;;;6.82;4.55;;;;;;;;;;5065155;28;20431;-69
2022/04/23 14:14:33;;;;;;;6.30;4.88;;;;;;;;;;5064542;28;20055;-69
2022/04/23 14:17:00;;;;;;;7.63;4.50;;;;;;;;;;5064388;28;20132;-69
2022/04/23 14:19:26;;;;;;;6.03;4.32;;;;;;;;;;5064509;28;20286;-69
2022/04/23 14:21:52;;;;;;;5.40;4.63;;;;;;;;;;5048561;28;20036;-69
2022/04/23 14:24:18;;;;;;;7.38;5.00;;;;;;;;;;5065141;28;20548;-69
2022/04/23 14:26:44;;;;;;;7.65;5.30;;;;;;;;;;5065333;28;20072;-69
2022/04/23 14:29:10;;;;;;;8.35;5.00;;;;;;;;;;5064195;28;20052;-69
2022/04/23 14:31:36;;;;;;;9.77;5.05;;;;;;;;;;5063080;28;20068;-69
2022/04/23 14:34:02;;;;;;;7.72;4.80;;;;;;;;;;5065002;28;20037;-69
2022/04/23 14:36:30;;;;;;;5.10;4.55;;;;;;;;;;5064978;28;20044;-69
2022/04/23 14:38:56;;;;;;;6.20;5.13;;;;;;;;;;5063425;28;20064;-69
2022/04/23 14:41:23;;;;;;;7.85;4.63;;;;;;;;;;5067593;28;20066;-69
2022/04/23 14:43:50;;;;;;;6.13;4.82;;;;;;;;;;5068910;28;20059;-69
2022/04/23 14:46:16;;;;;;;6.93;4.72;;;;;;;;;;5052797;28;20043;-69
2022/04/23 14:48:43;;;;;;;8.35;4.65;;;;;;;;;;5052126;28;20056;-68
2022/04/23 14:53:54;;;;;;;5.15;4.32;;;;;;;;;;5054411;28;20144;-69
2022/04/23 14:56:21;;;;;;;7.90;4.85;;;;;;;;;;5068697;28;20101;-69
2022/04/23 14:58:47;;;;;;;8.07;4.43;;;;;;;;;;5069479;28;20123;-68
2022/04/23 15:01:13;;;;;;;6.32;4.60;;;;;;;;;;5068721;28;20117;-69
2022/04/23 15:03:39;;;;;;;6.75;5.57;;;;;;;;;;5067964;28;20051;-68
2022/04/23 15:06:06;;;;;;;8.63;4.93;;;;;;;;;;5069506;28;20055;-68
2022/04/23 15:08:32;;;;;;;6.07;4.70;;;;;;;;;;5067272;28;20047;-69
2022/04/23 15:10:58;;;;;;;7.70;4.63;;;;;;;;;;5068444;28;20053;-69
2022/04/23 15:13:24;;;;;;;5.35;4.55;;;;;;;;;;5068553;28;20045;-69
2022/04/23 15:15:50;;;;;;;5.43;4.53;;;;;;;;;;5067804;28;20040;-69
2022/04/23 15:18:16;;;;;;;6.32;4.43;;;;;;;;;;5065271;28;20059;-69